createdAt,value
2023-03-03T00:00:33.349Z,8.80
2023-03-03T00:03:07.146Z,12.07
2023-03-03T00:05:36.295Z,9.15
2023-03-03T00:08:06.206Z,10.20
2023-03-03T00:10:34.175Z,8.30
2023-03-03T00:13:02.288Z,7.43
2023-03-03T00:15:35.462Z,7.75
2023-03-03T00:18:18.169Z,7.87
2023-03-03T00:20:50.854Z,5.75
2023-03-03T00:23:27.533Z,7.70
2023-03-03T00:25:56.016Z,9.68
2023-03-03T00:28:27.181Z,7.20
2023-03-03T00:30:57.740Z,6.45
2023-03-03T00:33:29.407Z,6.07
2023-03-03T00:35:58.594Z,8.73
2023-03-03T00:38:28.270Z,6.90
2023-03-03T00:40:56.498Z,8.60
2023-03-03T00:43:27.986Z,10.77
2023-03-03T00:45:57.963Z,11.90
2023-03-03T00:48:32.150Z,11.52
2023-03-03T00:51:01.448Z,8.10
2023-03-03T00:53:32.081Z,8.20
2023-03-03T00:56:00.096Z,11.75
2023-03-03T00:58:37.609Z,7.25
2023-03-03T01:01:06.444Z,9.38
2023-03-03T01:03:35.780Z,5.35
2023-03-03T01:06:03.842Z,12.48
2023-03-03T01:08:34.958Z,5.20
2023-03-03T01:11:07.129Z,9.00
2023-03-03T01:13:38.117Z,6.12
2023-03-03T01:16:07.336Z,5.93
2023-03-03T01:18:36.549Z,7.15
2023-03-03T01:21:05.581Z,7.35
2023-03-03T01:23:35.305Z,7.57
2023-03-03T01:26:03.983Z,5.28
2023-03-03T01:28:31.987Z,10.43
2023-03-03T01:31:02.181Z,6.55
2023-03-03T01:33:31.622Z,6.72
2023-03-03T01:36:00.058Z,4.82
2023-03-03T01:38:28.381Z,5.93
2023-03-03T01:41:00.580Z,12.25
2023-03-03T01:43:31.101Z,10.43
2023-03-03T01:46:34.467Z,9.70
2023-03-03T01:49:06.821Z,7.95
2023-03-03T01:51:38.653Z,5.03
2023-03-03T01:54:11.884Z,6.22
2023-03-03T01:56:43.562Z,8.43
2023-03-03T01:59:15.026Z,6.72
2023-03-03T02:01:43.729Z,8.77
2023-03-03T02:04:11.992Z,16.42
2023-03-03T02:06:42.609Z,6.25
2023-03-03T02:09:16.301Z,7.25
2023-03-03T02:11:48.874Z,4.25
2023-03-03T02:14:17.064Z,8.77
2023-03-03T02:16:45.958Z,5.70
2023-03-03T02:19:23.001Z,7.85
2023-03-03T02:21:51.428Z,7.78
2023-03-03T02:24:27.483Z,5.30
2023-03-03T02:26:57.506Z,4.93
2023-03-03T02:29:25.801Z,5.50
2023-03-03T02:31:54.590Z,5.55
2023-03-03T02:34:23.314Z,4.37
2023-03-03T02:36:51.700Z,5.43
2023-03-03T02:39:24.146Z,6.75
2023-03-03T02:41:56.960Z,5.50
2023-03-03T02:44:29.141Z,5.32
2023-03-03T02:46:58.769Z,4.25
2023-03-03T02:49:28.522Z,6.22
2023-03-03T02:51:56.883Z,6.15
2023-03-03T02:54:27.330Z,5.70
2023-03-03T02:56:55.458Z,5.43
2023-03-03T02:59:23.786Z,6.65
2023-03-03T03:01:54.084Z,4.62
2023-03-03T03:04:24.603Z,4.68
2023-03-03T03:06:53.664Z,7.55
2023-03-03T03:09:24.405Z,6.00
2023-03-03T03:11:53.324Z,3.15
2023-03-03T03:14:23.427Z,3.47
2023-03-03T03:16:52.447Z,4.05
2023-03-03T03:19:22.959Z,4.93
2023-03-03T03:21:51.038Z,5.95
2023-03-03T03:24:19.513Z,4.00
2023-03-03T03:26:48.411Z,4.15
2023-03-03T03:29:16.415Z,4.68
2023-03-03T03:31:45.366Z,5.07
2023-03-03T03:34:13.913Z,5.62
2023-03-03T03:36:43.247Z,4.43
2023-03-03T03:39:12.352Z,4.75
2023-03-03T03:41:41.260Z,5.43
2023-03-03T03:44:09.358Z,4.03
2023-03-03T03:46:37.422Z,4.97
2023-03-03T03:49:06.830Z,5.40
2023-03-03T03:51:38.284Z,5.28
2023-03-03T03:54:08.632Z,5.03
2023-03-03T03:56:37.057Z,6.03
2023-03-03T03:59:07.446Z,5.00
2023-03-03T04:01:36.461Z,5.32
2023-03-03T04:04:05.132Z,5.85
2023-03-03T04:06:33.273Z,4.82
2023-03-03T04:09:01.735Z,4.05
2023-03-03T04:11:31.500Z,6.20
2023-03-03T04:13:59.773Z,3.80
2023-03-03T04:16:28.089Z,3.42
2023-03-03T04:18:57.070Z,4.97
2023-03-03T04:21:25.455Z,5.07
2023-03-03T04:23:54.485Z,6.37
2023-03-03T04:26:22.770Z,3.22
2023-03-03T04:28:52.189Z,4.32
2023-03-03T04:31:20.932Z,5.28
2023-03-03T04:33:49.339Z,4.20
2023-03-03T04:36:18.227Z,5.32
2023-03-03T04:38:46.322Z,6.37
2023-03-03T04:41:14.985Z,6.72
2023-03-03T04:43:43.155Z,5.70
2023-03-03T04:46:14.258Z,5.80
2023-03-03T04:48:42.989Z,10.30
2023-03-03T04:51:11.273Z,8.80
2023-03-03T04:53:39.543Z,8.43
2023-03-03T04:56:08.750Z,5.47
2023-03-03T04:58:37.185Z,5.75
2023-03-03T05:01:05.528Z,3.53
2023-03-03T05:03:35.370Z,5.87
2023-03-03T05:06:03.543Z,5.47
2023-03-03T05:08:31.573Z,5.30
2023-03-03T05:10:59.888Z,5.10
2023-03-03T05:13:28.209Z,3.87
2023-03-03T05:15:57.252Z,5.20
2023-03-03T05:18:27.576Z,4.43
2023-03-03T05:20:56.852Z,5.93
2023-03-03T05:23:25.152Z,9.48
2023-03-03T05:25:53.429Z,6.43
2023-03-03T05:28:21.434Z,7.53
2023-03-03T05:30:49.600Z,8.35
2023-03-03T05:33:18.901Z,7.60
2023-03-03T05:35:47.152Z,5.72
2023-03-03T05:38:16.423Z,6.62
2023-03-03T05:40:45.413Z,6.97
2023-03-03T05:43:13.476Z,6.45
2023-03-03T05:45:41.505Z,8.63
2023-03-03T05:48:11.155Z,8.13
2023-03-03T05:50:40.086Z,9.52
2023-03-03T05:53:08.317Z,6.03
2023-03-03T05:55:38.040Z,5.40
2023-03-03T05:58:06.027Z,8.52
2023-03-03T06:00:33.971Z,7.15
2023-03-03T06:03:02.265Z,7.30
2023-03-03T06:05:30.345Z,5.87
2023-03-03T06:07:58.648Z,6.62
2023-03-03T06:10:27.246Z,6.72
2023-03-03T06:12:58.519Z,6.93
2023-03-03T06:15:26.886Z,5.95
2023-03-03T06:17:55.086Z,6.93
2023-03-03T06:20:23.123Z,6.40
2023-03-03T06:22:51.408Z,9.48
2023-03-03T06:25:19.702Z,7.10
2023-03-03T06:27:47.779Z,7.43
2023-03-03T06:30:19.006Z,7.15
2023-03-03T06:32:47.355Z,8.95
2023-03-03T06:35:15.729Z,5.72
2023-03-03T06:37:43.835Z,5.68
2023-03-03T06:40:13.585Z,3.95
2023-03-03T06:42:42.154Z,5.32
2023-03-03T06:45:10.843Z,4.03
2023-03-03T06:47:40.464Z,6.37
2023-03-03T06:50:10.985Z,3.72
2023-03-03T06:52:39.370Z,5.60
2023-03-03T06:55:14.532Z,8.43
2023-03-03T06:57:43.248Z,6.97
2023-03-03T07:00:20.132Z,7.78
2023-03-03T07:02:57.375Z,7.40
2023-03-03T07:05:29.053Z,6.75
2023-03-03T07:07:57.611Z,9.48
2023-03-03T07:10:30.517Z,5.72
2023-03-03T07:13:12.073Z,6.25
2023-03-03T07:15:39.972Z,7.93
2023-03-03T07:18:26.581Z,5.68
2023-03-03T07:20:54.542Z,7.32
2023-03-03T07:23:25.616Z,8.57
2023-03-03T07:25:53.881Z,7.57
2023-03-03T07:28:25.539Z,7.10
2023-03-03T07:30:54.664Z,6.93
2023-03-03T07:33:28.563Z,4.57
2023-03-03T07:35:58.749Z,7.18
2023-03-03T07:38:32.897Z,7.10
2023-03-03T07:41:03.997Z,6.68
2023-03-03T07:43:36.607Z,6.57
2023-03-03T07:46:22.867Z,6.87
2023-03-03T07:48:54.153Z,7.25
2023-03-03T07:51:25.402Z,10.25
2023-03-03T07:53:55.134Z,9.27
2023-03-03T07:56:30.464Z,6.28
2023-03-03T07:58:59.595Z,5.37
2023-03-03T08:01:40.849Z,10.00
2023-03-03T08:04:23.509Z,9.02
2023-03-03T08:06:53.805Z,9.75
2023-03-03T08:09:38.462Z,9.30
2023-03-03T08:12:42.045Z,10.10
2023-03-03T08:15:20.779Z,6.82
2023-03-03T08:17:50.180Z,8.48
2023-03-03T08:20:44.809Z,9.63
2023-03-03T08:23:13.538Z,6.45
2023-03-03T08:25:42.807Z,7.50
2023-03-03T08:28:11.791Z,11.77
2023-03-03T08:30:39.995Z,11.73
2023-03-03T08:33:08.561Z,11.68
2023-03-03T08:35:38.008Z,11.63
2023-03-03T08:38:06.309Z,13.27
2023-03-03T08:40:35.069Z,7.90
2023-03-03T08:43:03.432Z,12.23
2023-03-03T08:45:32.313Z,14.70
2023-03-03T08:48:01.266Z,12.70
2023-03-03T08:50:30.311Z,13.20
2023-03-03T08:52:59.737Z,11.30
2023-03-03T08:55:28.140Z,13.45
2023-03-03T08:57:56.112Z,16.05
2023-03-03T09:00:25.066Z,16.15
2023-03-03T09:02:54.282Z,14.27
2023-03-03T09:05:23.593Z,12.32
2023-03-03T09:07:52.388Z,10.77
2023-03-03T09:10:30.839Z,15.07
2023-03-03T09:13:01.976Z,18.60
2023-03-03T09:15:31.989Z,14.85
2023-03-03T09:18:01.306Z,14.45
2023-03-03T09:20:34.333Z,15.63
2023-03-03T09:23:33.731Z,18.87
2023-03-03T09:26:23.282Z,13.40
2023-03-03T09:28:51.510Z,13.27
2023-03-03T09:31:27.086Z,15.65
2023-03-03T09:33:57.838Z,18.30
2023-03-03T09:36:29.035Z,15.55
2023-03-03T09:38:59.080Z,14.85
2023-03-03T09:42:03.762Z,9.82
2023-03-03T09:44:45.921Z,10.65
2023-03-03T09:47:35.947Z,13.93
2023-03-03T09:50:16.664Z,11.90
2023-03-03T09:52:53.776Z,15.07
2023-03-03T09:55:37.245Z,13.02
2023-03-03T09:58:26.097Z,12.27
2023-03-03T10:01:05.904Z,11.60
2023-03-03T10:04:02.260Z,12.77
2023-03-03T10:06:34.911Z,10.75
2023-03-03T10:09:23.759Z,10.15
2023-03-03T10:12:00.844Z,8.32
2023-03-03T10:14:54.122Z,11.70
2023-03-03T10:17:34.355Z,10.15
2023-03-03T10:20:26.285Z,9.95
2023-03-03T10:22:57.020Z,5.97
2023-03-03T10:25:42.284Z,10.40
2023-03-03T10:28:36.577Z,9.43
2023-03-03T10:31:18.587Z,9.27
2023-03-03T10:33:54.521Z,9.75
2023-03-03T10:36:36.135Z,11.10
2023-03-03T10:39:19.638Z,11.85
2023-03-03T10:42:10.159Z,8.68
2023-03-03T10:44:54.329Z,7.55
2023-03-03T10:47:35.719Z,9.65
2023-03-03T10:50:15.996Z,12.23
2023-03-03T10:52:50.481Z,10.20
2023-03-03T10:55:39.648Z,12.00
2023-03-03T10:58:33.182Z,15.50
2023-03-03T11:01:09.613Z,15.27
2023-03-03T11:04:09.657Z,15.02
2023-03-03T11:06:46.472Z,14.75
2023-03-03T11:09:31.890Z,14.63
2023-03-03T11:12:09.028Z,20.20
2023-03-03T11:14:47.812Z,12.20
2023-03-03T11:17:21.622Z,15.20
2023-03-03T11:20:02.629Z,16.95
2023-03-03T11:22:42.038Z,16.20
2023-03-03T11:25:24.113Z,13.98
2023-03-03T11:28:09.433Z,12.85
2023-03-03T11:30:59.944Z,15.02
2023-03-03T11:33:35.471Z,13.32
2023-03-03T11:36:12.771Z,11.80
2023-03-03T11:38:49.446Z,16.73
2023-03-03T11:41:35.865Z,12.85
2023-03-03T11:44:12.532Z,13.32
2023-03-03T11:46:47.337Z,14.57
2023-03-03T11:49:22.697Z,11.82
2023-03-03T11:52:03.185Z,12.75
2023-03-03T11:54:37.844Z,14.50
2023-03-03T11:57:18.917Z,18.98
2023-03-03T11:59:57.131Z,18.80
2023-03-03T12:02:43.951Z,14.25
2023-03-03T12:05:26.775Z,12.60
2023-03-03T12:08:08.048Z,15.82
2023-03-03T12:10:44.009Z,13.95
2023-03-03T12:13:23.189Z,14.82
2023-03-03T12:15:56.570Z,14.07
2023-03-03T12:18:43.745Z,18.30
2023-03-03T12:21:24.089Z,27.73
2023-03-03T12:24:09.391Z,13.40
2023-03-03T12:26:48.568Z,13.20
2023-03-03T12:29:28.841Z,11.80
2023-03-03T12:32:05.688Z,12.48
2023-03-03T12:34:39.941Z,14.00
2023-03-03T12:37:21.938Z,11.20
2023-03-03T12:40:03.628Z,13.23
2023-03-03T12:42:48.897Z,10.70
2023-03-03T12:45:34.515Z,20.88
2023-03-03T12:48:09.929Z,13.98
2023-03-03T12:50:55.833Z,15.60
2023-03-03T12:53:35.358Z,15.48
2023-03-03T12:56:08.803Z,10.05
2023-03-03T12:58:47.484Z,12.27
2023-03-03T13:01:33.677Z,10.18
2023-03-03T13:04:08.794Z,13.65
2023-03-03T13:06:43.970Z,11.45
2023-03-03T13:09:23.459Z,11.70
2023-03-03T13:12:06.189Z,10.25
2023-03-03T13:14:44.454Z,10.13
2023-03-03T13:17:20.907Z,10.38
2023-03-03T13:19:55.502Z,10.85
2023-03-03T13:22:35.662Z,10.80
2023-03-03T13:25:09.851Z,10.38
2023-03-03T13:27:41.959Z,9.65
2023-03-03T13:30:21.184Z,13.30
2023-03-03T13:32:55.970Z,13.50
2023-03-03T13:35:34.901Z,10.95
2023-03-03T13:38:05.889Z,12.65
2023-03-03T13:40:42.472Z,14.30
2023-03-03T13:43:19.292Z,11.65
2023-03-03T13:45:59.921Z,8.68
2023-03-03T13:48:43.180Z,9.88
2023-03-03T13:51:19.566Z,10.23
2023-03-03T13:53:54.722Z,11.43
2023-03-03T13:56:39.375Z,13.00
2023-03-03T13:59:17.789Z,16.12
2023-03-03T14:01:56.882Z,9.68
2023-03-03T14:04:35.664Z,16.15
2023-03-03T14:07:14.463Z,12.37
2023-03-03T14:09:57.489Z,11.95
2023-03-03T14:12:35.493Z,12.05
2023-03-03T14:15:12.686Z,10.60
2023-03-03T14:17:54.831Z,9.73
2023-03-03T14:20:29.042Z,6.68
2023-03-03T14:23:00.569Z,13.38
2023-03-03T14:25:53.549Z,9.10
2023-03-03T14:28:24.180Z,11.38
2023-03-03T14:30:56.404Z,9.77
2023-03-03T14:33:30.938Z,8.40
2023-03-03T14:36:16.055Z,13.85
2023-03-03T14:38:51.696Z,11.02
2023-03-03T14:41:23.853Z,8.07
2023-03-03T14:44:00.673Z,9.20
2023-03-03T14:46:36.490Z,9.00
2023-03-03T14:49:07.889Z,8.45
2023-03-03T14:51:45.117Z,13.38
2023-03-03T14:54:23.606Z,13.38
2023-03-03T14:57:13.281Z,11.30
2023-03-03T14:59:41.855Z,11.05
2023-03-03T15:02:32.896Z,10.60
2023-03-03T15:05:29.552Z,12.77
2023-03-03T15:07:59.800Z,8.82
2023-03-03T15:10:34.732Z,13.43
2023-03-03T15:13:34.376Z,10.75
2023-03-03T15:16:06.551Z,10.32
2023-03-03T15:18:51.961Z,6.10
2023-03-03T15:21:26.860Z,7.57
2023-03-03T15:24:00.869Z,7.25
2023-03-03T15:26:39.759Z,6.15
2023-03-03T15:29:17.298Z,4.75
2023-03-03T15:31:53.244Z,8.20
2023-03-03T15:34:40.592Z,6.80
2023-03-03T15:37:22.345Z,5.60
2023-03-03T15:39:58.234Z,8.73
2023-03-03T15:42:35.840Z,8.20
2023-03-03T15:45:15.383Z,11.35
2023-03-03T15:47:57.245Z,6.90
2023-03-03T15:50:36.308Z,8.07
2023-03-03T15:53:27.820Z,8.32
2023-03-03T15:56:13.064Z,10.70
2023-03-03T15:59:08.790Z,11.93
2023-03-03T16:01:45.240Z,5.57
2023-03-03T16:04:16.859Z,14.95
2023-03-03T16:06:58.808Z,17.55
2023-03-03T16:09:42.791Z,11.23
2023-03-03T16:12:22.545Z,6.82
2023-03-03T16:15:07.396Z,11.57
2023-03-03T16:17:48.381Z,6.30
2023-03-03T16:20:24.222Z,7.70
2023-03-03T16:23:26.290Z,7.55
2023-03-03T16:26:06.045Z,10.23
2023-03-03T16:28:48.027Z,12.93
2023-03-03T16:31:22.929Z,19.55
2023-03-03T16:34:01.095Z,12.40
2023-03-03T16:36:36.149Z,9.88
2023-03-03T16:39:09.951Z,10.25
2023-03-03T16:41:48.207Z,8.38
2023-03-03T16:44:35.610Z,6.70
2023-03-03T16:47:17.265Z,5.35
2023-03-03T16:49:52.856Z,4.30
2023-03-03T16:52:26.577Z,5.55
2023-03-03T16:54:58.227Z,6.82
2023-03-03T16:57:35.426Z,6.55
2023-03-03T17:00:10.485Z,7.50
2023-03-03T17:03:13.418Z,5.18
2023-03-03T17:05:49.776Z,5.75
2023-03-03T17:08:34.892Z,8.82
2023-03-03T17:11:12.638Z,6.40
2023-03-03T17:13:57.603Z,8.40
2023-03-03T17:16:49.809Z,9.07
2023-03-03T17:19:32.224Z,6.75
2023-03-03T17:22:13.539Z,4.82
2023-03-03T17:24:54.073Z,10.05
2023-03-03T17:27:29.116Z,6.00
2023-03-03T17:30:07.570Z,8.70
2023-03-03T17:32:59.926Z,5.07
2023-03-03T17:35:53.692Z,5.22
2023-03-03T17:38:36.068Z,12.25
2023-03-03T17:41:09.986Z,7.87
2023-03-03T17:43:48.488Z,10.85
2023-03-03T17:46:24.540Z,9.25
2023-03-03T17:49:31.721Z,9.55
2023-03-03T17:52:21.255Z,10.05
2023-03-03T17:55:06.619Z,4.53
2023-03-03T17:57:52.082Z,7.87
2023-03-03T18:00:37.150Z,4.62
2023-03-03T18:03:35.936Z,7.20
2023-03-03T18:06:27.679Z,6.18
2023-03-03T18:09:16.144Z,9.18
2023-03-03T18:12:00.024Z,12.52
2023-03-03T18:14:45.900Z,10.25
2023-03-03T18:17:34.708Z,18.25
2023-03-03T18:20:24.765Z,14.23
2023-03-03T18:22:54.199Z,8.10
2023-03-03T18:25:24.068Z,8.63
2023-03-03T18:28:20.624Z,6.87
2023-03-03T18:30:57.480Z,12.45
2023-03-03T18:33:37.918Z,6.30
2023-03-03T18:36:15.929Z,7.40
2023-03-03T18:38:47.902Z,7.25
2023-03-03T18:41:24.675Z,7.20
2023-03-03T18:43:58.282Z,6.68
2023-03-03T18:47:00.445Z,6.68
2023-03-03T18:49:52.580Z,7.47
2023-03-03T18:52:26.398Z,8.07
2023-03-03T18:55:22.776Z,4.87
2023-03-03T18:58:31.162Z,3.78
2023-03-03T19:01:03.770Z,5.80
2023-03-03T19:03:37.478Z,6.22
2023-03-03T19:06:10.297Z,5.20
2023-03-03T19:08:56.242Z,7.25
2023-03-03T19:11:38.640Z,6.45
2023-03-03T19:14:19.328Z,4.20
2023-03-03T19:16:49.677Z,5.65
2023-03-03T19:19:19.561Z,8.85
2023-03-03T19:21:51.341Z,5.85
2023-03-03T19:24:30.989Z,7.25
2023-03-03T19:27:14.773Z,7.20
2023-03-03T19:30:01.941Z,4.40
2023-03-03T19:33:02.367Z,8.40
2023-03-03T19:35:38.743Z,7.62
2023-03-03T19:38:20.329Z,6.62
2023-03-03T19:41:00.284Z,6.53
2023-03-03T19:43:42.009Z,7.10
2023-03-03T19:46:34.726Z,7.18
2023-03-03T19:49:14.004Z,6.60
2023-03-03T19:51:48.921Z,5.95
2023-03-03T19:54:32.813Z,6.90
2023-03-03T19:57:06.869Z,5.93
2023-03-03T19:59:42.346Z,8.25
2023-03-03T20:02:31.529Z,6.22
2023-03-03T20:05:14.643Z,6.85
2023-03-03T20:07:50.785Z,8.20
2023-03-03T20:10:45.113Z,8.32
2023-03-03T20:13:41.120Z,10.70
2023-03-03T20:16:19.648Z,12.52
2023-03-03T20:19:10.529Z,10.18
2023-03-03T20:21:45.620Z,13.62
2023-03-03T20:24:39.658Z,11.40
2023-03-03T20:27:16.146Z,16.52
2023-03-03T20:30:00.276Z,14.23
2023-03-03T20:32:42.714Z,10.43
2023-03-03T20:35:24.692Z,13.88
2023-03-03T20:38:04.645Z,9.70
2023-03-03T20:40:40.076Z,9.13
2023-03-03T20:43:21.464Z,9.70
2023-03-03T20:46:01.342Z,10.95
2023-03-03T20:48:44.159Z,10.43
2023-03-03T20:51:19.126Z,9.88
2023-03-03T20:53:57.756Z,10.57
2023-03-03T20:56:32.912Z,10.18
2023-03-03T20:59:14.458Z,9.55
2023-03-03T21:01:53.195Z,10.15
2023-03-03T21:04:24.569Z,8.73
2023-03-03T21:06:53.290Z,13.05
2023-03-03T21:09:27.974Z,9.60
2023-03-03T21:11:56.469Z,14.23
2023-03-03T21:14:27.310Z,14.57
2023-03-03T21:16:58.685Z,11.52
2023-03-03T21:19:30.278Z,13.25
2023-03-03T21:22:02.139Z,13.60
2023-03-03T21:24:51.371Z,13.07
2023-03-03T21:27:28.454Z,12.52
2023-03-03T21:30:05.974Z,18.23
2023-03-03T21:32:41.702Z,17.10
2023-03-03T21:35:12.177Z,17.77
2023-03-03T21:37:48.742Z,13.30
2023-03-03T21:40:21.039Z,17.58
2023-03-03T21:42:49.657Z,12.82
2023-03-03T21:45:20.644Z,17.95
2023-03-03T21:47:50.787Z,16.77
2023-03-03T21:50:21.573Z,15.55
2023-03-03T21:52:49.924Z,22.80
2023-03-03T21:55:18.509Z,17.25
2023-03-03T21:57:46.702Z,21.02
2023-03-03T22:00:15.349Z,17.95
2023-03-03T22:02:43.741Z,19.05
2023-03-03T22:05:13.163Z,17.20
2023-03-03T22:07:41.307Z,18.77
2023-03-03T22:10:11.028Z,14.20
2023-03-03T22:12:39.222Z,22.67
2023-03-03T22:15:08.110Z,20.12
2023-03-03T22:17:36.495Z,20.10
2023-03-03T22:20:05.211Z,19.33
2023-03-03T22:22:34.676Z,17.12
2023-03-03T22:25:03.281Z,17.50
2023-03-03T22:27:31.308Z,16.98
2023-03-03T22:29:59.365Z,17.02
2023-03-03T22:32:28.522Z,17.20
2023-03-03T22:34:56.708Z,17.90
2023-03-03T22:37:24.618Z,14.05
2023-03-03T22:39:54.189Z,19.65
2023-03-03T22:42:23.401Z,24.10
2023-03-03T22:44:51.472Z,19.12
2023-03-03T22:47:19.960Z,15.88
2023-03-03T22:49:48.151Z,18.10
2023-03-03T22:52:16.134Z,18.37
2023-03-03T22:54:44.414Z,14.68
2023-03-03T22:57:13.769Z,18.42
2023-03-03T22:59:41.706Z,19.08
2023-03-03T23:02:09.989Z,17.52
2023-03-03T23:04:39.187Z,18.52
2023-03-03T23:07:07.286Z,16.62
2023-03-03T23:09:35.613Z,15.18
2023-03-03T23:12:03.691Z,15.80
2023-03-03T23:14:33.174Z,12.85
2023-03-03T23:17:01.810Z,16.85
2023-03-03T23:19:29.841Z,14.10
2023-03-03T23:21:58.348Z,18.35
2023-03-03T23:24:26.648Z,15.40
2023-03-03T23:26:57.421Z,19.87
2023-03-03T23:29:25.757Z,15.32
2023-03-03T23:31:55.539Z,16.27
2023-03-03T23:34:23.670Z,14.13
2023-03-03T23:36:51.650Z,13.10
2023-03-03T23:39:20.144Z,15.90
2023-03-03T23:41:48.102Z,14.75
2023-03-03T23:44:16.107Z,10.90
2023-03-03T23:46:44.580Z,12.52
2023-03-03T23:49:13.958Z,15.68
2023-03-03T23:51:42.785Z,13.30
2023-03-03T23:54:11.128Z,12.60
2023-03-03T23:56:39.116Z,12.05
2023-03-03T23:59:07.188Z,8.85
